Starksboro, Vermont
Current Conditions -  °F | °C
As of 12:54 AM on Friday 31 Oct 2014 (Local Time) from KBTV Reporting Station
Overcast Overcast  
Wind Chill: 44°   Ceiling: 2800
Heat Index: 44°   Visibility: 10mi
Dew Point: 32°   Wind: 0mph
Humidity: 63%   Direction: NA
Pressure: 30.02"   Gusts: NA
Location:  44.23°N, 73.06°W
Report Text: KBTV 310454Z 00000KT 10SM OVC028 07/00 A3002 RMK AO2 SLP166 T00670000 401110067
Loading
Personal Weather Stations






























Interactive Weather Map New forecast layout! Learn more

10-Day Weather Forecast

Advertisements
Track Severe Weather on mobile